createdAt,value
2023-03-14T00:01:26.396Z,1.40
2023-03-14T00:03:53.035Z,1.30
2023-03-14T00:06:19.819Z,1.03
2023-03-14T00:08:48.122Z,1.10
2023-03-14T00:11:20.899Z,1.07
2023-03-14T00:13:51.929Z,1.20
2023-03-14T00:16:19.555Z,1.47
2023-03-14T00:18:46.254Z,1.70
2023-03-14T00:21:13.606Z,1.30
2023-03-14T00:23:42.075Z,1.50
2023-03-14T00:26:15.432Z,1.30
2023-03-14T00:28:43.000Z,1.20
2023-03-14T00:31:11.768Z,1.30
2023-03-14T00:33:38.434Z,1.50
2023-03-14T00:36:09.838Z,1.50
2023-03-14T00:38:37.386Z,1.03
2023-03-14T00:41:08.633Z,1.20
2023-03-14T00:43:35.536Z,1.10
2023-03-14T00:46:02.777Z,1.40
2023-03-14T00:48:29.550Z,1.33
2023-03-14T00:50:56.237Z,1.27
2023-03-14T00:53:23.326Z,1.10
2023-03-14T00:55:49.978Z,1.30
2023-03-14T00:58:18.268Z,1.10
2023-03-14T01:00:45.630Z,1.10
2023-03-14T01:03:13.415Z,1.30
2023-03-14T01:05:40.162Z,1.23
2023-03-14T01:08:07.834Z,1.10
2023-03-14T01:10:35.711Z,1.20
2023-03-14T01:13:02.341Z,1.33
2023-03-14T01:15:28.982Z,1.50
2023-03-14T01:17:55.599Z,1.30
2023-03-14T01:20:22.445Z,1.10
2023-03-14T01:22:49.022Z,1.20
2023-03-14T01:25:17.463Z,1.20
2023-03-14T01:27:44.649Z,1.20
2023-03-14T01:30:13.261Z,1.20
2023-03-14T01:32:40.323Z,1.37
2023-03-14T01:35:07.731Z,1.50
2023-03-14T01:37:34.343Z,1.27
2023-03-14T01:40:01.060Z,1.10
2023-03-14T01:42:27.692Z,1.30
2023-03-14T01:45:00.267Z,1.20
2023-03-14T01:47:27.771Z,1.13
2023-03-14T01:49:59.179Z,1.10
2023-03-14T01:52:49.510Z,1.10
2023-03-14T01:55:20.120Z,1.30
2023-03-14T01:57:59.452Z,1.20
2023-03-14T02:00:26.155Z,1.13
2023-03-14T02:03:02.452Z,1.20
2023-03-14T02:05:35.366Z,1.20
2023-03-14T02:08:04.851Z,1.10
2023-03-14T02:10:40.202Z,1.10
2023-03-14T02:13:07.248Z,1.10
2023-03-14T02:15:34.973Z,1.00
2023-03-14T02:18:03.787Z,1.23
2023-03-14T02:20:57.453Z,1.23
2023-03-14T02:23:41.489Z,0.90
2023-03-14T02:26:17.589Z,1.20
2023-03-14T02:28:44.268Z,1.03
2023-03-14T02:31:11.397Z,1.10
2023-03-14T02:33:39.568Z,1.20
2023-03-14T02:36:11.313Z,1.00
2023-03-14T02:39:01.715Z,1.03
2023-03-14T02:41:29.542Z,1.13
2023-03-14T02:43:56.112Z,1.23
2023-03-14T02:46:23.486Z,1.07
2023-03-14T02:49:08.573Z,0.90
2023-03-14T02:51:36.224Z,1.10
2023-03-14T02:54:03.052Z,1.10
2023-03-14T02:56:29.651Z,1.00
2023-03-14T02:58:58.584Z,0.97
2023-03-14T03:01:26.070Z,0.83
2023-03-14T03:03:53.045Z,0.80
2023-03-14T03:06:20.112Z,1.07
2023-03-14T03:08:46.742Z,1.10
2023-03-14T03:11:13.689Z,0.97
2023-03-14T03:13:40.364Z,1.00
2023-03-14T03:16:07.364Z,0.97
2023-03-14T03:18:34.053Z,0.93
2023-03-14T03:21:05.061Z,1.00
2023-03-14T03:23:31.684Z,0.97
2023-03-14T03:25:58.637Z,1.07
2023-03-14T03:28:25.335Z,0.90
2023-03-14T03:30:51.950Z,1.30
2023-03-14T03:33:18.708Z,0.90
2023-03-14T03:35:48.214Z,0.90
2023-03-14T03:38:15.622Z,0.97
2023-03-14T03:40:42.518Z,1.00
2023-03-14T03:43:09.279Z,1.20
2023-03-14T03:45:35.905Z,1.07
2023-03-14T03:48:02.550Z,1.00
2023-03-14T03:50:29.269Z,1.13
2023-03-14T03:52:55.824Z,0.90
2023-03-14T03:55:22.431Z,1.00
2023-03-14T03:57:49.025Z,1.10
2023-03-14T04:00:15.844Z,1.10
2023-03-14T04:02:42.568Z,1.10
2023-03-14T04:05:09.645Z,0.87
2023-03-14T04:07:36.394Z,1.00
2023-03-14T04:10:03.054Z,0.90
2023-03-14T04:12:29.692Z,1.10
2023-03-14T04:14:56.259Z,0.83
2023-03-14T04:17:22.987Z,0.90
2023-03-14T04:19:52.285Z,0.80
2023-03-14T04:22:18.917Z,1.03
2023-03-14T04:24:45.539Z,1.00
2023-03-14T04:27:12.145Z,1.00
2023-03-14T04:29:38.722Z,0.90
2023-03-14T04:32:05.474Z,0.97
2023-03-14T04:34:32.069Z,1.27
2023-03-14T04:36:58.684Z,0.90
2023-03-14T04:39:25.289Z,1.20
2023-03-14T04:41:51.875Z,1.00
2023-03-14T04:44:18.516Z,0.90
2023-03-14T04:46:45.102Z,0.93
2023-03-14T04:49:11.668Z,1.20
2023-03-14T04:51:38.228Z,1.00
2023-03-14T04:54:04.989Z,0.90
2023-03-14T04:56:32.110Z,1.10
2023-03-14T04:58:58.697Z,1.10
2023-03-14T05:01:25.311Z,1.03
2023-03-14T05:03:51.950Z,1.00
2023-03-14T05:06:18.532Z,1.10
2023-03-14T05:08:45.857Z,1.00
2023-03-14T05:11:13.720Z,1.10
2023-03-14T05:13:40.629Z,1.20
2023-03-14T05:16:09.365Z,0.93
2023-03-14T05:18:36.454Z,1.20
2023-03-14T05:21:03.847Z,1.00
2023-03-14T05:23:30.774Z,1.60
2023-03-14T05:25:57.494Z,1.13
2023-03-14T05:28:24.061Z,1.47
2023-03-14T05:30:50.760Z,1.10
2023-03-14T05:33:17.380Z,1.07
2023-03-14T05:35:44.116Z,1.50
2023-03-14T05:38:10.894Z,1.30
2023-03-14T05:40:37.437Z,1.07
2023-03-14T05:43:04.131Z,1.10
2023-03-14T05:45:30.843Z,1.50
2023-03-14T05:47:57.402Z,1.20
2023-03-14T05:50:24.090Z,0.90
2023-03-14T05:52:50.680Z,1.10
2023-03-14T05:55:17.429Z,1.17
2023-03-14T05:57:44.016Z,1.40
2023-03-14T06:00:14.332Z,1.30
2023-03-14T06:02:41.151Z,1.30
2023-03-14T06:05:08.454Z,1.13
2023-03-14T06:07:35.049Z,1.10
2023-03-14T06:10:01.787Z,1.17
2023-03-14T06:12:29.367Z,1.20
2023-03-14T06:14:55.927Z,1.43
2023-03-14T06:17:22.595Z,1.10
2023-03-14T06:19:49.143Z,1.40
2023-03-14T06:22:15.766Z,1.30
2023-03-14T06:24:42.360Z,1.13
2023-03-14T06:27:09.006Z,1.43
2023-03-14T06:29:35.638Z,1.47
2023-03-14T06:32:02.288Z,1.87
2023-03-14T06:34:28.927Z,2.17
2023-03-14T06:36:55.499Z,2.10
2023-03-14T06:39:22.111Z,1.50
2023-03-14T06:41:48.700Z,1.50
2023-03-14T06:44:15.301Z,1.67
2023-03-14T06:46:42.020Z,2.20
2023-03-14T06:49:08.691Z,1.30
2023-03-14T06:51:35.826Z,1.30
2023-03-14T06:54:02.713Z,1.33
2023-03-14T06:56:29.848Z,1.57
2023-03-14T06:58:56.711Z,1.30
2023-03-14T07:01:28.677Z,1.37
2023-03-14T07:03:55.390Z,1.50
2023-03-14T07:06:22.617Z,1.30
2023-03-14T07:08:49.246Z,1.50
2023-03-14T07:11:15.993Z,1.20
2023-03-14T07:13:42.634Z,1.23
2023-03-14T07:16:10.082Z,1.90
2023-03-14T07:18:38.285Z,1.77
2023-03-14T07:21:09.923Z,1.40
2023-03-14T07:23:36.728Z,1.30
2023-03-14T07:26:03.403Z,1.60
2023-03-14T07:28:30.093Z,1.53
2023-03-14T07:30:56.797Z,1.63
2023-03-14T07:33:23.746Z,1.70
2023-03-14T07:35:50.603Z,1.63
2023-03-14T07:38:17.896Z,1.53
2023-03-14T07:40:44.525Z,1.50
2023-03-14T07:43:11.190Z,1.30
2023-03-14T07:45:43.060Z,1.37
2023-03-14T07:48:10.811Z,1.40
2023-03-14T07:50:37.398Z,1.60
2023-03-14T07:53:04.044Z,1.70
2023-03-14T07:55:30.659Z,1.53
2023-03-14T07:57:57.617Z,1.53
2023-03-14T08:00:24.254Z,1.57
2023-03-14T08:02:51.058Z,1.47
2023-03-14T08:05:17.914Z,1.63
2023-03-14T08:07:47.540Z,1.43
2023-03-14T08:10:21.833Z,1.50
2023-03-14T08:12:51.653Z,1.60
2023-03-14T08:15:18.554Z,1.53
2023-03-14T08:17:45.150Z,1.40
2023-03-14T08:20:13.226Z,1.53
2023-03-14T08:22:39.864Z,2.10
2023-03-14T08:25:07.013Z,1.80
2023-03-14T08:27:33.602Z,1.80
2023-03-14T08:30:00.196Z,1.73
2023-03-14T08:32:26.804Z,1.77
2023-03-14T08:34:53.402Z,1.77
2023-03-14T08:37:26.531Z,1.53
2023-03-14T08:39:53.902Z,2.00
2023-03-14T08:42:20.652Z,1.67
2023-03-14T08:44:47.289Z,1.60
2023-03-14T08:47:14.220Z,1.70
2023-03-14T08:49:41.085Z,1.77
2023-03-14T08:52:07.870Z,1.70
2023-03-14T08:54:34.421Z,1.63
2023-03-14T08:57:01.032Z,2.20
2023-03-14T08:59:27.601Z,1.77
2023-03-14T09:01:55.494Z,1.50
2023-03-14T09:04:22.750Z,2.00
2023-03-14T09:06:49.434Z,1.50
2023-03-14T09:09:16.006Z,1.63
2023-03-14T09:11:42.670Z,1.50
2023-03-14T09:14:09.281Z,1.60
2023-03-14T09:16:36.006Z,1.67
2023-03-14T09:19:02.675Z,1.60
2023-03-14T09:21:29.301Z,1.63
2023-03-14T09:23:55.954Z,1.60
2023-03-14T09:26:22.559Z,2.27
2023-03-14T09:28:49.883Z,1.57
2023-03-14T09:31:17.079Z,1.40
2023-03-14T09:33:43.796Z,1.70
2023-03-14T09:36:10.615Z,1.90
2023-03-14T09:38:37.540Z,1.70
2023-03-14T09:41:31.611Z,1.63
2023-03-14T09:44:16.867Z,1.33
2023-03-14T09:46:48.918Z,1.57
2023-03-14T09:49:40.444Z,1.60
2023-03-14T09:52:23.062Z,1.83
2023-03-14T09:54:54.480Z,1.60
2023-03-14T09:57:24.965Z,1.37
2023-03-14T09:59:55.914Z,1.60
2023-03-14T10:02:29.595Z,1.80
2023-03-14T10:04:56.237Z,1.60
2023-03-14T10:07:31.448Z,1.33
2023-03-14T10:09:59.430Z,1.40
2023-03-14T10:12:37.389Z,1.50
2023-03-14T10:15:15.844Z,1.70
2023-03-14T10:17:45.309Z,1.70
2023-03-14T10:20:39.173Z,1.57
2023-03-14T10:23:15.773Z,1.20
2023-03-14T10:25:45.871Z,1.40
2023-03-14T10:28:27.829Z,1.33
2023-03-14T10:30:55.600Z,1.67
2023-03-14T10:33:30.915Z,1.70
2023-03-14T10:36:07.782Z,1.57
2023-03-14T10:38:36.620Z,1.53
2023-03-14T10:41:15.195Z,1.80
2023-03-14T10:43:42.555Z,1.40
2023-03-14T10:46:19.883Z,1.60
2023-03-14T10:48:47.333Z,1.27
2023-03-14T10:51:40.299Z,1.50
2023-03-14T10:54:22.419Z,1.50
2023-03-14T10:57:01.321Z,1.67
2023-03-14T10:59:36.944Z,1.40
2023-03-14T11:02:37.841Z,1.23
2023-03-14T11:05:26.713Z,1.30
2023-03-14T11:08:01.953Z,1.20
2023-03-14T11:10:43.896Z,1.30
2023-03-14T11:13:33.517Z,1.60
2023-03-14T11:16:10.510Z,1.20
2023-03-14T11:18:49.893Z,1.50
2023-03-14T11:21:38.806Z,1.10
2023-03-14T11:24:25.400Z,1.47
2023-03-14T11:27:06.266Z,1.27
2023-03-14T11:30:07.746Z,1.50
2023-03-14T11:32:46.561Z,1.30
2023-03-14T11:35:21.168Z,1.00
2023-03-14T11:38:06.136Z,1.00
2023-03-14T11:40:34.296Z,1.33
2023-03-14T11:43:16.776Z,1.53
2023-03-14T11:45:46.118Z,1.30
2023-03-14T11:48:34.265Z,1.20
2023-03-14T11:51:06.004Z,1.23
2023-03-14T11:53:49.577Z,1.10
2023-03-14T11:56:40.768Z,1.33
2023-03-14T11:59:21.129Z,2.00
2023-03-14T12:01:55.302Z,1.30
2023-03-14T12:04:41.091Z,1.90
2023-03-14T12:07:18.913Z,1.47
2023-03-14T12:09:46.793Z,1.23
2023-03-14T12:12:19.496Z,1.10
2023-03-14T12:14:54.128Z,2.00
2023-03-14T12:17:24.013Z,1.60
2023-03-14T12:20:21.999Z,1.00
2023-03-14T12:22:54.763Z,1.20
2023-03-14T12:25:24.049Z,0.80
2023-03-14T12:28:04.487Z,1.70
2023-03-14T12:30:33.511Z,1.20
2023-03-14T12:33:18.278Z,1.50
2023-03-14T12:35:52.455Z,1.10
2023-03-14T12:38:37.422Z,1.10
2023-03-14T12:41:13.717Z,1.43
2023-03-14T12:43:40.458Z,1.73
2023-03-14T12:46:20.843Z,1.50
2023-03-14T12:49:01.590Z,1.40
2023-03-14T12:51:44.930Z,1.33
2023-03-14T12:54:28.579Z,1.30
2023-03-14T12:57:10.509Z,1.30
2023-03-14T13:00:14.154Z,1.40
2023-03-14T13:02:45.276Z,1.30
2023-03-14T13:05:26.584Z,1.20
2023-03-14T13:07:56.395Z,1.30
2023-03-14T13:10:37.867Z,1.50
2023-03-14T13:13:18.714Z,1.20
2023-03-14T13:15:48.954Z,1.00
2023-03-14T13:18:27.717Z,1.50
2023-03-14T13:21:14.056Z,1.40
2023-03-14T13:23:40.935Z,1.17
2023-03-14T13:26:15.677Z,1.13
2023-03-14T13:28:42.589Z,0.97
2023-03-14T13:31:24.384Z,1.03
2023-03-14T13:34:01.525Z,1.00
2023-03-14T13:36:28.593Z,1.00
2023-03-14T13:39:03.652Z,0.97
2023-03-14T13:41:30.518Z,1.23
2023-03-14T13:44:06.557Z,1.10
2023-03-14T13:46:36.235Z,1.50
2023-03-14T13:49:05.437Z,1.40
2023-03-14T13:51:36.641Z,1.03
2023-03-14T13:54:05.915Z,0.97
2023-03-14T13:56:33.799Z,1.17
2023-03-14T13:59:00.541Z,1.10
2023-03-14T14:01:32.371Z,1.20
2023-03-14T14:04:07.651Z,1.50
2023-03-14T14:06:38.518Z,1.20
2023-03-14T14:09:25.274Z,1.02
2023-03-14T14:12:21.470Z,1.00
2023-03-14T14:14:57.195Z,0.90
2023-03-14T14:17:42.160Z,0.77
2023-03-14T14:20:33.376Z,0.80
2023-03-14T14:23:03.085Z,0.70
2023-03-14T14:25:31.018Z,1.30
2023-03-14T14:27:57.706Z,1.00
2023-03-14T14:30:32.087Z,0.90
2023-03-14T14:33:18.708Z,1.03
2023-03-14T14:35:56.512Z,0.90
2023-03-14T14:38:23.579Z,1.00
2023-03-14T14:40:54.069Z,0.93
2023-03-14T14:43:27.809Z,0.90
2023-03-14T14:45:56.911Z,1.13
2023-03-14T14:48:25.662Z,0.90
2023-03-14T14:51:00.564Z,0.90
2023-03-14T14:53:44.149Z,0.70
2023-03-14T14:56:25.776Z,0.93
2023-03-14T14:59:01.924Z,1.00
2023-03-14T15:01:37.447Z,1.40
2023-03-14T15:04:14.559Z,1.10
2023-03-14T15:06:44.428Z,0.97
2023-03-14T15:09:14.247Z,0.70
2023-03-14T15:11:40.920Z,0.90
2023-03-14T15:14:07.917Z,1.00
2023-03-14T15:16:35.338Z,1.00
2023-03-14T15:19:23.590Z,1.07
2023-03-14T15:21:50.682Z,0.80
2023-03-14T15:24:17.292Z,1.20
2023-03-14T15:26:45.221Z,0.80
2023-03-14T15:29:13.460Z,0.70
2023-03-14T15:31:41.583Z,0.67
2023-03-14T15:34:10.085Z,0.73
2023-03-14T15:36:37.817Z,0.63
2023-03-14T15:39:06.720Z,0.70
2023-03-14T15:41:33.714Z,0.50
2023-03-14T15:44:00.357Z,0.60
2023-03-14T15:46:28.695Z,0.50
2023-03-14T15:48:56.612Z,0.50
2023-03-14T15:51:23.260Z,0.37
2023-03-14T15:53:49.966Z,0.70
2023-03-14T15:56:20.835Z,0.80
2023-03-14T15:58:47.616Z,0.83
2023-03-14T16:01:16.788Z,0.90
2023-03-14T16:03:47.291Z,0.97
2023-03-14T16:06:14.963Z,0.90
2023-03-14T16:08:43.231Z,0.70
2023-03-14T16:11:15.721Z,1.00
2023-03-14T16:13:42.527Z,0.60
2023-03-14T16:16:09.740Z,0.67
2023-03-14T16:18:39.066Z,0.70
2023-03-14T16:21:08.704Z,0.70
2023-03-14T16:23:36.349Z,0.87
2023-03-14T16:26:08.352Z,0.70
2023-03-14T16:28:35.428Z,0.80
2023-03-14T16:31:05.228Z,0.83
2023-03-14T16:33:33.409Z,0.80
2023-03-14T16:36:06.436Z,0.77
2023-03-14T16:38:34.150Z,0.70
2023-03-14T16:41:10.758Z,0.70
2023-03-14T16:43:37.746Z,0.90
2023-03-14T16:46:06.804Z,1.10
2023-03-14T16:48:33.885Z,0.63
2023-03-14T16:51:00.627Z,0.60
2023-03-14T16:53:30.063Z,0.43
2023-03-14T16:55:58.329Z,0.60
2023-03-14T16:58:25.204Z,0.80
2023-03-14T17:00:52.222Z,0.60
2023-03-14T17:03:18.955Z,0.90
2023-03-14T17:05:52.543Z,1.10
2023-03-14T17:08:20.883Z,1.00
2023-03-14T17:10:47.774Z,1.03
2023-03-14T17:13:14.473Z,1.10
2023-03-14T17:15:45.969Z,1.20
2023-03-14T17:18:12.654Z,1.80
2023-03-14T17:20:41.204Z,1.57
2023-03-14T17:23:08.423Z,1.93
2023-03-14T17:25:36.638Z,2.67
2023-03-14T17:28:03.568Z,1.60
2023-03-14T17:30:30.305Z,1.60
2023-03-14T17:32:58.584Z,1.63
2023-03-14T17:35:25.580Z,1.53
2023-03-14T17:37:54.878Z,1.60
2023-03-14T17:40:21.644Z,1.60
2023-03-14T17:42:48.330Z,2.20
2023-03-14T17:45:15.073Z,1.80
2023-03-14T17:47:41.658Z,2.00
2023-03-14T17:50:08.946Z,1.70
2023-03-14T17:52:36.680Z,2.00
2023-03-14T17:55:05.792Z,2.20
2023-03-14T17:57:32.789Z,2.43
2023-03-14T17:59:59.405Z,2.13
2023-03-14T18:02:26.296Z,2.20
2023-03-14T18:04:53.421Z,2.50
2023-03-14T18:07:23.123Z,2.67
2023-03-14T18:09:51.481Z,2.73
2023-03-14T18:12:18.351Z,2.80
2023-03-14T18:14:45.132Z,2.87
2023-03-14T18:17:13.308Z,2.40
2023-03-14T18:19:40.976Z,2.90
2023-03-14T18:22:08.479Z,2.50
2023-03-14T18:24:35.171Z,2.37
2023-03-14T18:27:01.874Z,2.40
2023-03-14T18:29:28.572Z,2.33
2023-03-14T18:31:56.757Z,2.80
2023-03-14T18:34:23.993Z,2.57
2023-03-14T18:36:51.558Z,2.40
2023-03-14T18:39:19.150Z,2.37
2023-03-14T18:41:46.652Z,2.47
2023-03-14T18:44:13.779Z,3.23
2023-03-14T18:46:43.157Z,2.63
2023-03-14T18:49:16.116Z,2.83
2023-03-14T18:51:44.172Z,3.33
2023-03-14T18:54:13.949Z,3.00
2023-03-14T18:56:44.533Z,2.93
2023-03-14T18:59:15.602Z,3.43
2023-03-14T19:01:43.439Z,3.43
2023-03-14T19:04:12.112Z,3.70
2023-03-14T19:06:41.916Z,3.30
2023-03-14T19:09:14.874Z,4.67
2023-03-14T19:11:45.949Z,3.43
2023-03-14T19:14:16.023Z,2.70
2023-03-14T19:16:43.172Z,2.97
2023-03-14T19:19:10.568Z,2.30
2023-03-14T19:21:37.334Z,2.87
2023-03-14T19:24:06.330Z,3.23
2023-03-14T19:26:35.201Z,3.70
2023-03-14T19:29:02.058Z,2.97
2023-03-14T19:31:28.842Z,3.00
2023-03-14T19:33:55.665Z,2.73
2023-03-14T19:36:28.692Z,2.70
2023-03-14T19:38:56.468Z,2.90
2023-03-14T19:41:24.593Z,2.40
2023-03-14T19:43:52.785Z,3.13
2023-03-14T19:46:20.054Z,3.00
2023-03-14T19:48:50.315Z,3.20
2023-03-14T19:51:17.505Z,2.63
2023-03-14T19:53:44.477Z,2.87
2023-03-14T19:56:11.515Z,2.90
2023-03-14T19:58:39.911Z,2.47
2023-03-14T20:01:08.096Z,3.03
2023-03-14T20:03:36.515Z,3.00
2023-03-14T20:06:12.352Z,2.80
2023-03-14T20:08:39.382Z,2.70
2023-03-14T20:11:08.418Z,2.90
2023-03-14T20:13:35.636Z,2.50
2023-03-14T20:16:10.109Z,2.23
2023-03-14T20:18:37.136Z,1.90
2023-03-14T20:21:12.774Z,2.87
2023-03-14T20:23:39.740Z,1.87
2023-03-14T20:26:09.280Z,2.20
2023-03-14T20:28:35.921Z,2.60
2023-03-14T20:31:07.632Z,2.63
2023-03-14T20:33:34.621Z,2.40
2023-03-14T20:36:01.562Z,2.60
2023-03-14T20:38:29.283Z,2.30
2023-03-14T20:40:57.441Z,2.07
2023-03-14T20:43:24.434Z,2.60
2023-03-14T20:45:52.979Z,2.13
2023-03-14T20:48:19.689Z,2.30
2023-03-14T20:50:49.551Z,2.03
2023-03-14T20:53:17.996Z,2.53
2023-03-14T20:55:45.170Z,2.50
2023-03-14T20:58:16.120Z,3.40
2023-03-14T21:00:48.136Z,2.17
2023-03-14T21:03:15.342Z,2.00
2023-03-14T21:05:49.083Z,2.37
2023-03-14T21:08:20.338Z,2.00
2023-03-14T21:10:48.378Z,2.37
2023-03-14T21:13:18.963Z,1.90
2023-03-14T21:15:46.078Z,2.07
2023-03-14T21:18:16.492Z,1.90
2023-03-14T21:20:43.925Z,2.17
2023-03-14T21:23:11.958Z,2.13
2023-03-14T21:25:38.932Z,2.13
2023-03-14T21:28:05.934Z,2.13
2023-03-14T21:30:34.021Z,2.20
2023-03-14T21:33:01.361Z,1.93
2023-03-14T21:35:28.300Z,1.80
2023-03-14T21:37:54.958Z,1.87
2023-03-14T21:40:22.263Z,2.37
2023-03-14T21:42:48.907Z,2.30
2023-03-14T21:45:16.670Z,2.30
2023-03-14T21:47:47.326Z,2.00
2023-03-14T21:50:14.956Z,1.90
2023-03-14T21:52:46.203Z,2.03
2023-03-14T21:55:20.458Z,1.90
2023-03-14T21:57:48.559Z,2.33
2023-03-14T22:00:17.784Z,2.13
2023-03-14T22:02:58.217Z,2.23
2023-03-14T22:05:31.932Z,2.17
2023-03-14T22:07:58.594Z,2.00
2023-03-14T22:10:25.620Z,2.03
2023-03-14T22:12:52.269Z,2.40
2023-03-14T22:15:18.944Z,2.20
2023-03-14T22:17:45.614Z,2.07
2023-03-14T22:20:13.932Z,2.20
2023-03-14T22:22:41.114Z,2.27
2023-03-14T22:25:08.111Z,2.27
2023-03-14T22:27:34.781Z,2.03
2023-03-14T22:30:01.403Z,2.27
2023-03-14T22:32:27.994Z,2.47
2023-03-14T22:34:54.553Z,2.30
2023-03-14T22:37:22.908Z,2.00
2023-03-14T22:39:49.476Z,2.53
2023-03-14T22:42:18.748Z,2.17
2023-03-14T22:44:45.590Z,2.00
2023-03-14T22:47:12.605Z,2.33
2023-03-14T22:49:39.249Z,1.83
2023-03-14T22:52:05.906Z,2.17
2023-03-14T22:54:32.757Z,2.30
2023-03-14T22:56:59.372Z,2.30
2023-03-14T22:59:26.067Z,2.10
2023-03-14T23:01:52.802Z,1.87
2023-03-14T23:04:19.767Z,2.20
2023-03-14T23:06:46.377Z,2.63
2023-03-14T23:09:13.032Z,2.00
2023-03-14T23:11:41.630Z,2.03
2023-03-14T23:14:08.761Z,2.50
2023-03-14T23:16:40.570Z,2.20
2023-03-14T23:19:07.374Z,2.10
2023-03-14T23:21:33.945Z,2.63
2023-03-14T23:24:05.543Z,1.70
2023-03-14T23:26:35.366Z,2.00
2023-03-14T23:29:05.440Z,1.90
2023-03-14T23:31:32.696Z,2.10
2023-03-14T23:33:59.465Z,2.50
2023-03-14T23:36:26.235Z,1.90
2023-03-14T23:38:52.939Z,1.77
2023-03-14T23:41:19.572Z,2.40
2023-03-14T23:43:47.712Z,2.00
2023-03-14T23:46:16.035Z,2.20
2023-03-14T23:48:46.583Z,2.73
2023-03-14T23:51:13.775Z,2.40
2023-03-14T23:53:40.844Z,2.10
2023-03-14T23:56:07.801Z,2.40
2023-03-14T23:58:35.861Z,2.00
